Terminal Aerodrome Forecast
Issued by NWS Rapid City, SD

Home | Current Version | Previous Version | Text Only | Print | Product List | Glossary Off
Versions: 1 2 3 4 5 6 7 8 9 10 11 12 13 14 15 16 17 18 19 20 21 22

000
FTUS43 KUNR 232124 AAA
TAFRAP
TAF AMD
KRAP 232124Z 2321/2418 14015G25KT P6SM SCT100 BKN250
      TEMPO 2321/2324 -TSRA BKN050CB
     FM240000 11010KT P6SM VCTS SCT070CB OVC110
     FM240200 08008KT P6SM OVC100
      TEMPO 2402/2406 P6SM -TSRA BKN050CB
     FM241200 32009KT P6SM SCT050=

USA.gov is the U.S. government's official web portal to all federal, state and local government web resources and services.